createdAt,value
2023-05-14T00:01:12.781Z,99709.78
2023-05-14T00:05:14.267Z,99713.47
2023-05-14T00:09:15.732Z,99712.81
2023-05-14T00:13:17.201Z,99708.53
2023-05-14T00:17:20.095Z,99702.69
2023-05-14T00:21:21.661Z,99698.75
2023-05-14T00:25:23.376Z,99686.81
2023-05-14T00:29:25.110Z,99689.47
2023-05-14T00:33:27.996Z,99689.41
2023-05-14T00:37:29.541Z,99684.97
2023-05-14T00:41:31.018Z,99674.66
2023-05-14T00:45:32.506Z,99671.63
2023-05-14T00:49:35.502Z,99673.31
2023-05-14T00:53:37.421Z,99679.13
2023-05-14T00:57:38.914Z,99676.72
2023-05-14T01:01:40.473Z,99678.59
2023-05-14T01:06:06.863Z,99670.66
2023-05-14T01:10:13.507Z,99669.13
2023-05-14T01:14:21.754Z,99673.75
2023-05-14T01:18:24.741Z,99657.78
2023-05-14T01:22:27.620Z,99658.59
2023-05-14T01:26:29.195Z,99656.41
2023-05-14T01:30:33.969Z,99664.03
2023-05-14T01:34:37.710Z,99655.38
2023-05-14T01:38:41.204Z,99655.09
2023-05-14T01:42:43.787Z,99643.34
2023-05-14T01:46:45.320Z,99644.63
2023-05-14T01:50:46.882Z,99645.69
2023-05-14T01:54:49.966Z,99643.72
2023-05-14T01:58:51.526Z,99649.31
2023-05-14T02:02:53.272Z,99652.28
2023-05-14T02:06:54.855Z,99656.84
2023-05-14T02:10:57.697Z,99638.03
2023-05-14T02:14:59.171Z,99638.03
2023-05-14T02:19:00.708Z,99649.59
2023-05-14T02:23:02.225Z,99654.13
2023-05-14T02:27:05.533Z,99645.16
2023-05-14T02:31:07.058Z,99645.41
2023-05-14T02:35:09.464Z,99644.53
2023-05-14T02:39:10.980Z,99644.94
2023-05-14T02:43:14.036Z,99634.81
2023-05-14T02:47:15.512Z,99637.91
2023-05-14T02:51:17.004Z,99638.56
2023-05-14T02:55:18.693Z,99639.63
2023-05-14T02:59:21.629Z,99631.91
2023-05-14T03:03:23.535Z,99629.06
2023-05-14T03:07:25.444Z,99636.31
2023-05-14T03:11:26.938Z,99632.66
2023-05-14T03:15:29.823Z,99633.13
2023-05-14T03:19:31.360Z,99636.13
2023-05-14T03:23:32.875Z,99637.84
2023-05-14T03:27:34.374Z,99632.47
2023-05-14T03:31:37.345Z,99627.00
2023-05-14T03:35:38.808Z,99621.25
2023-05-14T03:39:40.274Z,99621.75
2023-05-14T03:43:41.753Z,99608.94
2023-05-14T03:47:44.606Z,99603.53
2023-05-14T03:51:46.142Z,99604.28
2023-05-14T03:55:47.643Z,99603.19
2023-05-14T03:59:49.216Z,99606.81
2023-05-14T04:03:52.156Z,99600.91
2023-05-14T04:07:53.754Z,99604.25
2023-05-14T04:11:55.227Z,99597.13
2023-05-14T04:15:56.750Z,99594.28
2023-05-14T04:19:59.597Z,99592.31
2023-05-14T04:24:01.080Z,99593.41
2023-05-14T04:28:02.669Z,99590.09
2023-05-14T04:32:04.992Z,99589.16
2023-05-14T04:36:08.390Z,99583.94
2023-05-14T04:40:10.505Z,99587.94
2023-05-14T04:44:12.760Z,99577.88
2023-05-14T04:48:14.267Z,99581.66
2023-05-14T04:52:17.116Z,99575.34
2023-05-14T04:56:18.622Z,99586.41
2023-05-14T05:00:20.163Z,99585.25
2023-05-14T05:04:21.656Z,99584.50
2023-05-14T05:08:24.543Z,99578.63
2023-05-14T05:12:26.292Z,99578.78
2023-05-14T05:16:27.824Z,99576.63
2023-05-14T05:20:29.335Z,99578.97
2023-05-14T05:24:32.148Z,99571.78
2023-05-14T05:28:33.636Z,99566.06
2023-05-14T05:32:35.177Z,99566.50
2023-05-14T05:36:36.662Z,99566.31
2023-05-14T05:40:39.530Z,99564.88
2023-05-14T05:44:41.044Z,99561.91
2023-05-14T05:48:42.561Z,99565.28
2023-05-14T05:52:44.145Z,99562.78
2023-05-14T05:56:46.965Z,99565.50
2023-05-14T06:00:48.450Z,99568.06
2023-05-14T06:04:49.979Z,99564.78
2023-05-14T06:08:51.517Z,99562.38
2023-05-14T06:12:54.432Z,99567.19
2023-05-14T06:16:55.962Z,99565.75
2023-05-14T06:20:57.913Z,99562.31
2023-05-14T06:24:59.476Z,99559.00
2023-05-14T06:29:02.347Z,99554.25
2023-05-14T06:33:04.007Z,99551.16
2023-05-14T06:37:05.645Z,99548.13
2023-05-14T06:41:07.137Z,99548.84
2023-05-14T06:45:10.849Z,99558.88
2023-05-14T06:49:12.426Z,99544.47
2023-05-14T06:53:14.051Z,99539.00
2023-05-14T06:57:15.537Z,99546.56
2023-05-14T07:01:18.409Z,99542.78
2023-05-14T07:05:19.940Z,99539.50
2023-05-14T07:09:21.435Z,99534.81
2023-05-14T07:13:23.078Z,99536.78
2023-05-14T07:17:26.038Z,99534.66
2023-05-14T07:21:27.610Z,99522.81
2023-05-14T07:25:29.095Z,99517.03
2023-05-14T07:29:30.719Z,99517.03
2023-05-14T07:33:33.582Z,99512.09
2023-05-14T07:37:35.239Z,99510.06
2023-05-14T07:41:36.798Z,99510.66
2023-05-14T07:45:38.556Z,99513.91
2023-05-14T07:49:41.519Z,99502.88
2023-05-14T07:53:43.037Z,99498.44
2023-05-14T07:57:44.589Z,99502.84
2023-05-14T08:01:46.116Z,99499.25
2023-05-14T08:05:49.113Z,99495.09
2023-05-14T08:09:50.612Z,99500.03
2023-05-14T08:13:52.135Z,99485.53
2023-05-14T08:17:53.784Z,99497.13
2023-05-14T08:21:56.744Z,99488.22
2023-05-14T08:25:58.254Z,99487.53
2023-05-14T08:29:59.812Z,99482.13
2023-05-14T08:34:01.317Z,99481.41
2023-05-14T08:38:04.182Z,99479.25
2023-05-14T08:42:07.085Z,99479.63
2023-05-14T08:46:13.256Z,99475.03
2023-05-14T08:50:15.415Z,99474.44
2023-05-14T08:54:18.601Z,99469.72
2023-05-14T08:58:20.166Z,99464.09
2023-05-14T09:02:27.368Z,99467.56
2023-05-14T09:06:29.978Z,99464.03
2023-05-14T09:10:32.853Z,99465.16
2023-05-14T09:14:34.399Z,99457.81
2023-05-14T09:18:36.680Z,99461.53
2023-05-14T09:22:38.821Z,99469.13
2023-05-14T09:26:42.060Z,99461.47
2023-05-14T09:30:47.436Z,99450.13
2023-05-14T09:34:48.952Z,99455.19
2023-05-14T09:38:50.605Z,99446.09
2023-05-14T09:42:53.466Z,99434.22
2023-05-14T09:46:55.720Z,99436.09
2023-05-14T09:50:57.304Z,99432.66
2023-05-14T09:54:59.627Z,99433.88
2023-05-14T09:59:03.212Z,99428.84
2023-05-14T10:03:06.368Z,99418.44
2023-05-14T10:07:08.633Z,99425.78
2023-05-14T10:11:14.079Z,99414.63
2023-05-14T10:15:22.443Z,99409.56
2023-05-14T10:19:24.743Z,99395.19
2023-05-14T10:23:27.092Z,99405.28
2023-05-14T10:27:28.991Z,99405.47
2023-05-14T10:31:48.980Z,99388.16
2023-05-14T10:35:52.431Z,99393.13
2023-05-14T10:39:57.682Z,99387.78
2023-05-14T10:43:59.331Z,99385.72
2023-05-14T10:48:02.496Z,99377.66
2023-05-14T10:52:07.248Z,99383.03
2023-05-14T10:56:11.472Z,99377.31
2023-05-14T11:00:14.860Z,99380.13
2023-05-14T11:04:23.024Z,99365.03
2023-05-14T11:08:28.015Z,99369.97
2023-05-14T11:12:31.554Z,99368.09
2023-05-14T11:16:33.791Z,99361.03
2023-05-14T11:20:37.329Z,99365.09
2023-05-14T11:24:38.858Z,99364.56
2023-05-14T11:28:40.497Z,99352.03
2023-05-14T11:32:44.717Z,99353.16
2023-05-14T11:36:47.577Z,99341.16
2023-05-14T11:40:51.977Z,99343.53
2023-05-14T11:44:53.651Z,99338.72
2023-05-14T11:48:55.152Z,99337.28
2023-05-14T11:52:58.022Z,99332.34
2023-05-14T11:57:01.700Z,99329.34
2023-05-14T12:01:03.316Z,99325.03
2023-05-14T12:05:06.355Z,99318.66
2023-05-14T12:09:12.524Z,99315.16
2023-05-14T12:13:15.578Z,99309.41
2023-05-14T12:17:18.673Z,99295.56
2023-05-14T12:21:20.374Z,99297.00
2023-05-14T12:25:25.623Z,99295.03
2023-05-14T12:29:27.169Z,99290.91
2023-05-14T12:33:28.897Z,99285.72
2023-05-14T12:37:31.349Z,99290.66
2023-05-14T12:41:34.244Z,99289.41
2023-05-14T12:45:35.755Z,99276.59
2023-05-14T12:49:37.269Z,99268.84
2023-05-14T12:53:38.794Z,99271.56
2023-05-14T12:57:41.799Z,99261.66
2023-05-14T13:01:43.357Z,99261.66
2023-05-14T13:05:44.918Z,99255.69
2023-05-14T13:09:46.433Z,99257.28
2023-05-14T13:13:49.267Z,99251.47
2023-05-14T13:17:50.767Z,99263.75
2023-05-14T13:21:52.281Z,99254.47
2023-05-14T13:25:53.829Z,99249.47
2023-05-14T13:29:56.762Z,99248.50
2023-05-14T13:33:58.307Z,99250.53
2023-05-14T13:37:59.877Z,99248.66
2023-05-14T13:42:01.434Z,99248.56
2023-05-14T13:46:05.611Z,99248.44
2023-05-14T13:50:08.010Z,99245.53
2023-05-14T13:54:09.846Z,99236.81
2023-05-14T13:58:11.410Z,99244.56
2023-05-14T14:02:14.940Z,99241.81
2023-05-14T14:06:16.498Z,99234.69
2023-05-14T14:10:18.061Z,99227.06
2023-05-14T14:14:19.580Z,99222.38
2023-05-14T14:18:22.466Z,99231.50
2023-05-14T14:22:27.129Z,99207.53
2023-05-14T14:26:30.499Z,99210.22
2023-05-14T14:30:32.698Z,99205.16
2023-05-14T14:34:35.573Z,99211.50
2023-05-14T14:38:37.087Z,99204.44
2023-05-14T14:42:38.598Z,99196.50
2023-05-14T14:46:40.105Z,99191.94
2023-05-14T14:50:42.988Z,99197.81
2023-05-14T14:54:44.470Z,99201.13
2023-05-14T14:58:46.014Z,99194.31
2023-05-14T15:02:47.660Z,99187.72
2023-05-14T15:06:50.601Z,99189.22
2023-05-14T15:10:52.244Z,99191.72
2023-05-14T15:14:53.789Z,99185.94
2023-05-14T15:18:55.302Z,99179.94
2023-05-14T15:22:58.251Z,99184.41
2023-05-14T15:26:59.736Z,99181.00
2023-05-14T15:31:01.286Z,99179.72
2023-05-14T15:35:02.961Z,99186.06
2023-05-14T15:39:05.771Z,99178.94
2023-05-14T15:43:07.346Z,99172.13
2023-05-14T15:47:08.841Z,99168.03
2023-05-14T15:51:10.404Z,99176.06
2023-05-14T15:55:13.456Z,99168.31
2023-05-14T15:59:14.958Z,99168.31
2023-05-14T16:03:17.230Z,99167.13
2023-05-14T16:07:18.824Z,99163.50
2023-05-14T16:11:21.737Z,99168.03
2023-05-14T16:15:23.235Z,99165.16
2023-05-14T16:19:24.848Z,99162.56
2023-05-14T16:23:26.561Z,99168.91
2023-05-14T16:27:29.530Z,99161.97
2023-05-14T16:31:31.061Z,99164.66
2023-05-14T16:35:32.587Z,99156.44
2023-05-14T16:39:34.047Z,99164.78
2023-05-14T16:43:36.880Z,99164.84
2023-05-14T16:47:38.385Z,99167.59
2023-05-14T16:51:39.902Z,99162.69
2023-05-14T16:55:41.454Z,99169.97
2023-05-14T16:59:45.133Z,99163.34
2023-05-14T17:03:46.601Z,99169.22
2023-05-14T17:07:48.130Z,99158.50
2023-05-14T17:11:49.620Z,99161.41
2023-05-14T17:15:52.597Z,99150.38
2023-05-14T17:19:54.205Z,99146.59
2023-05-14T17:23:55.686Z,99147.75
2023-05-14T17:27:57.184Z,99160.97
2023-05-14T17:32:00.180Z,99167.66
2023-05-14T17:36:01.818Z,99158.56
2023-05-14T17:40:03.649Z,99155.47
2023-05-14T17:44:05.195Z,99157.09
2023-05-14T17:48:08.118Z,99160.44
2023-05-14T17:52:09.658Z,99154.41
2023-05-14T17:56:11.156Z,99153.25
2023-05-14T18:00:13.422Z,99149.72
2023-05-14T18:04:16.295Z,99154.81
2023-05-14T18:08:17.828Z,99153.00
2023-05-14T18:12:19.306Z,99150.59
2023-05-14T18:16:20.873Z,99160.09
2023-05-14T18:20:23.781Z,99160.97
2023-05-14T18:24:25.399Z,99159.38
2023-05-14T18:28:27.724Z,99154.47
2023-05-14T18:32:29.537Z,99158.38
2023-05-14T18:36:32.760Z,99164.47
2023-05-14T18:40:34.290Z,99156.81
2023-05-14T18:44:35.744Z,99161.78
2023-05-14T18:48:37.308Z,99165.69
2023-05-14T18:52:40.138Z,99181.38
2023-05-14T18:56:41.682Z,99178.34
2023-05-14T19:00:43.157Z,99181.66
2023-05-14T19:04:51.633Z,99185.50
2023-05-14T19:08:55.401Z,99180.00
2023-05-14T19:12:56.848Z,99190.44
2023-05-14T19:16:58.412Z,99193.72
2023-05-14T19:20:59.889Z,99192.59
2023-05-14T19:25:03.198Z,99188.72
2023-05-14T19:29:05.796Z,99196.38
2023-05-14T19:33:07.290Z,99187.00
2023-05-14T19:37:08.853Z,99195.44
2023-05-14T19:41:11.730Z,99192.41
2023-05-14T19:45:13.282Z,99184.97
2023-05-14T19:49:14.764Z,99177.53
2023-05-14T19:53:16.254Z,99173.13
2023-05-14T19:57:19.105Z,99170.34
2023-05-14T20:01:20.698Z,99167.59
2023-05-14T20:05:22.207Z,99167.59
2023-05-14T20:09:23.705Z,99169.75
2023-05-14T20:13:26.588Z,99161.47
2023-05-14T20:17:28.131Z,99163.09
2023-05-14T20:21:29.882Z,99163.03
2023-05-14T20:25:32.028Z,99161.31
2023-05-14T20:29:35.055Z,99164.44
2023-05-14T20:33:36.525Z,99152.31
2023-05-14T20:37:38.027Z,99140.19
2023-05-14T20:41:39.485Z,99138.81
2023-05-14T20:45:42.327Z,99131.28
2023-05-14T20:49:43.832Z,99125.69
2023-05-14T20:53:45.325Z,99134.34
2023-05-14T20:57:46.799Z,99120.38
2023-05-14T21:01:49.680Z,99115.63
2023-05-14T21:05:51.184Z,99111.28
2023-05-14T21:09:52.762Z,99118.38
2023-05-14T21:13:54.274Z,99115.00
2023-05-14T21:17:57.193Z,99113.13
2023-05-14T21:21:58.680Z,99114.22
2023-05-14T21:26:00.178Z,99105.72
2023-05-14T21:30:01.663Z,99100.50
2023-05-14T21:34:04.496Z,99100.34
2023-05-14T21:38:06.012Z,99106.16
2023-05-14T21:42:08.339Z,99096.72
2023-05-14T21:46:09.848Z,99097.31
2023-05-14T21:50:12.689Z,99098.31
2023-05-14T21:54:14.230Z,99087.75
2023-05-14T21:58:15.838Z,99081.00
2023-05-14T22:02:17.420Z,99078.13
2023-05-14T22:06:20.298Z,99075.88
2023-05-14T22:10:21.970Z,99066.28
2023-05-14T22:14:23.614Z,99072.56
2023-05-14T22:18:25.076Z,99058.97
2023-05-14T22:22:27.905Z,99061.16
2023-05-14T22:26:29.393Z,99055.72
2023-05-14T22:30:30.856Z,99057.13
2023-05-14T22:34:32.331Z,99052.78
2023-05-14T22:38:35.184Z,99053.41
2023-05-14T22:42:36.655Z,99050.34
2023-05-14T22:46:38.258Z,99040.50
2023-05-14T22:50:39.791Z,99033.50
2023-05-14T22:54:42.596Z,99037.97
2023-05-14T22:58:44.075Z,99031.34
2023-05-14T23:02:45.593Z,99025.56
2023-05-14T23:06:47.206Z,99016.44
2023-05-14T23:10:50.042Z,99014.16
2023-05-14T23:14:51.505Z,99009.22
2023-05-14T23:18:53.080Z,99003.13
2023-05-14T23:22:54.681Z,98999.97
2023-05-14T23:26:57.940Z,98996.22
2023-05-14T23:30:59.497Z,98991.28
2023-05-14T23:35:00.962Z,98982.28
2023-05-14T23:39:02.461Z,98981.09
2023-05-14T23:43:05.319Z,98982.06
2023-05-14T23:47:07.295Z,98961.88
2023-05-14T23:51:08.790Z,98968.19
2023-05-14T23:55:10.285Z,98959.78
2023-05-14T23:59:13.117Z,98952.00
